sensor_id;sensor_type;location;lat;lon;timestamp;pressure;altitude;pressure_sealevel;temperature;humidity
13312;BME280;34033;48.672;9.376;2023-05-23T00:00:56;98351.38;;;18.66;88.51
13312;BME280;34033;48.672;9.376;2023-05-23T00:03:23;98351.03;;;18.64;88.54
13312;BME280;34033;48.672;9.376;2023-05-23T00:05:48;98343.34;;;18.65;88.57
13312;BME280;34033;48.672;9.376;2023-05-23T00:08:14;98352.63;;;18.65;88.34
13312;BME280;34033;48.672;9.376;2023-05-23T00:10:40;98349.91;;;18.62;88.47
13312;BME280;34033;48.672;9.376;2023-05-23T00:13:05;98350.72;;;18.62;88.53
13312;BME280;34033;48.672;9.376;2023-05-23T00:15:34;98357.97;;;18.63;88.76
13312;BME280;34033;48.672;9.376;2023-05-23T00:18:01;98353.88;;;18.64;88.85
13312;BME280;34033;48.672;9.376;2023-05-23T00:20:26;98356.63;;;18.68;88.43
13312;BME280;34033;48.672;9.376;2023-05-23T00:22:53;98359.34;;;18.71;88.17
13312;BME280;34033;48.672;9.376;2023-05-23T00:25:18;98355.34;;;18.69;88.31
13312;BME280;34033;48.672;9.376;2023-05-23T00:27:46;98358.19;;;18.69;88.28
13312;BME280;34033;48.672;9.376;2023-05-23T00:30:11;98356.50;;;18.71;88.19
13312;BME280;34033;48.672;9.376;2023-05-23T00:32:36;98355.72;;;18.71;88.06
13312;BME280;34033;48.672;9.376;2023-05-23T00:35:02;98354.91;;;18.70;88.05
13312;BME280;34033;48.672;9.376;2023-05-23T00:37:27;98353.44;;;18.66;88.39
13312;BME280;34033;48.672;9.376;2023-05-23T00:39:53;98355.91;;;18.64;88.47
13312;BME280;34033;48.672;9.376;2023-05-23T00:42:18;98351.13;;;18.61;88.58
13312;BME280;34033;48.672;9.376;2023-05-23T00:44:43;98358.03;;;18.60;88.87
13312;BME280;34033;48.672;9.376;2023-05-23T00:47:09;98358.47;;;18.58;89.20
13312;BME280;34033;48.672;9.376;2023-05-23T00:49:37;98359.38;;;18.55;89.33
13312;BME280;34033;48.672;9.376;2023-05-23T00:52:03;98361.66;;;18.60;88.51
13312;BME280;34033;48.672;9.376;2023-05-23T00:54:29;98364.13;;;18.58;88.57
13312;BME280;34033;48.672;9.376;2023-05-23T00:56:58;98369.03;;;18.58;88.33
13312;BME280;34033;48.672;9.376;2023-05-23T00:59:24;98370.16;;;18.60;88.29
13312;BME280;34033;48.672;9.376;2023-05-23T01:01:51;98372.13;;;18.63;87.83
13312;BME280;34033;48.672;9.376;2023-05-23T01:04:17;98370.84;;;18.64;87.49
13312;BME280;34033;48.672;9.376;2023-05-23T01:06:44;98373.78;;;18.61;87.57
13312;BME280;34033;48.672;9.376;2023-05-23T01:09:17;98375.47;;;18.58;87.61
13312;BME280;34033;48.672;9.376;2023-05-23T01:14:18;98372.34;;;18.53;87.62
13312;BME280;34033;48.672;9.376;2023-05-23T01:16:54;98373.63;;;18.52;87.52
13312;BME280;34033;48.672;9.376;2023-05-23T01:22:15;98373.16;;;18.53;87.23
13312;BME280;34033;48.672;9.376;2023-05-23T01:27:28;98372.34;;;18.53;86.82
13312;BME280;34033;48.672;9.376;2023-05-23T01:29:57;98372.03;;;18.51;86.97
13312;BME280;34033;48.672;9.376;2023-05-23T01:32:26;98371.66;;;18.49;87.14
13312;BME280;34033;48.672;9.376;2023-05-23T01:34:52;98372.47;;;18.49;87.14
13312;BME280;34033;48.672;9.376;2023-05-23T01:37:18;98367.59;;;18.50;86.63
13312;BME280;34033;48.672;9.376;2023-05-23T01:39:44;98378.13;;;18.49;86.72
13312;BME280;34033;48.672;9.376;2023-05-23T01:42:10;98378.00;;;18.53;86.32
13312;BME280;34033;48.672;9.376;2023-05-23T01:44:37;98380.84;;;18.53;86.38
13312;BME280;34033;48.672;9.376;2023-05-23T01:47:04;98375.19;;;18.53;86.04
13312;BME280;34033;48.672;9.376;2023-05-23T01:49:33;98378.91;;;18.50;86.04
13312;BME280;34033;48.672;9.376;2023-05-23T01:52:00;98385.56;;;18.43;86.27
13312;BME280;34033;48.672;9.376;2023-05-23T01:54:26;98376.81;;;18.38;86.72
13312;BME280;34033;48.672;9.376;2023-05-23T01:56:54;98378.56;;;18.31;86.93
13312;BME280;34033;48.672;9.376;2023-05-23T01:59:20;98387.00;;;18.35;86.97
13312;BME280;34033;48.672;9.376;2023-05-23T02:01:45;98383.69;;;18.37;86.96
13312;BME280;34033;48.672;9.376;2023-05-23T02:04:12;98385.66;;;18.40;86.69
13312;BME280;34033;48.672;9.376;2023-05-23T02:06:37;98384.97;;;18.36;86.92
13312;BME280;34033;48.672;9.376;2023-05-23T02:09:03;98386.53;;;18.37;86.85
13312;BME280;34033;48.672;9.376;2023-05-23T02:11:28;98386.00;;;18.42;86.42
13312;BME280;34033;48.672;9.376;2023-05-23T02:13:53;98377.44;;;18.45;86.07
13312;BME280;34033;48.672;9.376;2023-05-23T02:16:19;98384.44;;;18.41;85.88
13312;BME280;34033;48.672;9.376;2023-05-23T02:18:44;98384.16;;;18.35;86.05
13312;BME280;34033;48.672;9.376;2023-05-23T02:21:10;98386.28;;;18.31;86.53
13312;BME280;34033;48.672;9.376;2023-05-23T02:23:35;98387.59;;;18.26;86.27
13312;BME280;34033;48.672;9.376;2023-05-23T02:26:00;98386.09;;;18.22;86.87
13312;BME280;34033;48.672;9.376;2023-05-23T02:28:26;98382.13;;;18.19;86.95
13312;BME280;34033;48.672;9.376;2023-05-23T02:30:51;98380.19;;;18.16;87.01
13312;BME280;34033;48.672;9.376;2023-05-23T02:33:16;98383.13;;;18.13;87.38
13312;BME280;34033;48.672;9.376;2023-05-23T02:35:42;98384.25;;;18.15;87.19
13312;BME280;34033;48.672;9.376;2023-05-23T02:38:07;98391.88;;;18.18;86.83
13312;BME280;34033;48.672;9.376;2023-05-23T02:40:32;98379.81;;;18.14;86.96
13312;BME280;34033;48.672;9.376;2023-05-23T02:42:58;98382.31;;;18.12;86.91
13312;BME280;34033;48.672;9.376;2023-05-23T02:45:23;98384.78;;;18.10;86.96
13312;BME280;34033;48.672;9.376;2023-05-23T02:47:48;98384.88;;;18.07;87.27
13312;BME280;34033;48.672;9.376;2023-05-23T02:50:14;98390.63;;;18.03;87.45
13312;BME280;34033;48.672;9.376;2023-05-23T02:52:40;98389.75;;;18.06;87.39
13312;BME280;34033;48.672;9.376;2023-05-23T02:55:07;98389.75;;;18.06;87.02
13312;BME280;34033;48.672;9.376;2023-05-23T02:57:32;98389.56;;;18.13;86.98
13312;BME280;34033;48.672;9.376;2023-05-23T02:59:57;98388.56;;;18.20;86.35
13312;BME280;34033;48.672;9.376;2023-05-23T03:02:23;98384.94;;;18.19;86.49
13312;BME280;34033;48.672;9.376;2023-05-23T03:04:48;98392.66;;;18.19;86.07
13312;BME280;34033;48.672;9.376;2023-05-23T03:07:15;98388.69;;;18.16;86.25
13312;BME280;34033;48.672;9.376;2023-05-23T03:09:40;98392.03;;;18.11;86.82
13312;BME280;34033;48.672;9.376;2023-05-23T03:12:05;98393.72;;;18.09;88.18
13312;BME280;34033;48.672;9.376;2023-05-23T03:14:31;98405.38;;;18.11;87.73
13312;BME280;34033;48.672;9.376;2023-05-23T03:16:56;98394.25;;;18.04;88.50
13312;BME280;34033;48.672;9.376;2023-05-23T03:19:22;98397.53;;;18.02;89.07
13312;BME280;34033;48.672;9.376;2023-05-23T03:21:47;98395.56;;;17.99;89.65
13312;BME280;34033;48.672;9.376;2023-05-23T03:24:14;98395.84;;;18.05;88.55
13312;BME280;34033;48.672;9.376;2023-05-23T03:26:39;98397.16;;;18.00;88.97
13312;BME280;34033;48.672;9.376;2023-05-23T03:29:05;98389.91;;;17.99;88.94
13312;BME280;34033;48.672;9.376;2023-05-23T03:31:31;98397.00;;;18.07;89.02
13312;BME280;34033;48.672;9.376;2023-05-23T03:33:56;98396.81;;;18.14;88.35
13312;BME280;34033;48.672;9.376;2023-05-23T03:36:21;98408.91;;;18.15;88.39
13312;BME280;34033;48.672;9.376;2023-05-23T03:38:50;98409.28;;;18.17;88.29
13312;BME280;34033;48.672;9.376;2023-05-23T03:41:15;98413.06;;;18.26;87.79
13312;BME280;34033;48.672;9.376;2023-05-23T03:43:41;98410.06;;;18.33;87.20
13312;BME280;34033;48.672;9.376;2023-05-23T03:46:06;98413.06;;;18.43;86.52
13312;BME280;34033;48.672;9.376;2023-05-23T03:48:31;98412.19;;;18.46;86.34
13312;BME280;34033;48.672;9.376;2023-05-23T03:50:57;98418.53;;;18.50;85.97
13312;BME280;34033;48.672;9.376;2023-05-23T03:53:22;98416.16;;;18.48;85.96
13312;BME280;34033;48.672;9.376;2023-05-23T03:55:47;98427.03;;;18.50;85.82
13312;BME280;34033;48.672;9.376;2023-05-23T03:58:13;98416.94;;;18.49;85.89
13312;BME280;34033;48.672;9.376;2023-05-23T04:00:38;98411.56;;;18.54;85.60
13312;BME280;34033;48.672;9.376;2023-05-23T04:03:03;98413.31;;;18.64;84.93
13312;BME280;34033;48.672;9.376;2023-05-23T04:05:29;98416.50;;;18.66;84.76
13312;BME280;34033;48.672;9.376;2023-05-23T04:07:54;98418.28;;;19.05;83.73
13312;BME280;34033;48.672;9.376;2023-05-23T04:10:19;98416.06;;;19.26;81.88
13312;BME280;34033;48.672;9.376;2023-05-23T04:12:45;98410.59;;;19.18;81.79
13312;BME280;34033;48.672;9.376;2023-05-23T04:15:11;98406.03;;;19.08;82.37
13312;BME280;34033;48.672;9.376;2023-05-23T04:17:37;98407.81;;;19.02;82.83
13312;BME280;34033;48.672;9.376;2023-05-23T04:20:07;98408.13;;;18.92;83.58
13312;BME280;34033;48.672;9.376;2023-05-23T04:22:33;98420.09;;;18.83;84.36
13312;BME280;34033;48.672;9.376;2023-05-23T04:24:59;98417.91;;;18.74;84.98
13312;BME280;34033;48.672;9.376;2023-05-23T04:27:24;98413.69;;;18.66;84.89
13312;BME280;34033;48.672;9.376;2023-05-23T04:29:50;98416.00;;;18.55;85.55
13312;BME280;34033;48.672;9.376;2023-05-23T04:32:16;98415.34;;;18.48;85.87
13312;BME280;34033;48.672;9.376;2023-05-23T04:34:43;98417.50;;;18.44;86.63
13312;BME280;34033;48.672;9.376;2023-05-23T04:37:09;98423.16;;;18.44;86.86
13312;BME280;34033;48.672;9.376;2023-05-23T04:39:35;98418.72;;;18.43;87.14
13312;BME280;34033;48.672;9.376;2023-05-23T04:42:00;98419.44;;;18.47;87.09
13312;BME280;34033;48.672;9.376;2023-05-23T04:44:26;98423.50;;;18.46;87.42
13312;BME280;34033;48.672;9.376;2023-05-23T04:46:54;98427.41;;;18.52;87.15
13312;BME280;34033;48.672;9.376;2023-05-23T04:49:20;98441.03;;;18.57;87.18
13312;BME280;34033;48.672;9.376;2023-05-23T04:51:46;98426.00;;;18.60;86.70
13312;BME280;34033;48.672;9.376;2023-05-23T04:54:12;98423.25;;;18.56;86.78
13312;BME280;34033;48.672;9.376;2023-05-23T04:56:38;98433.69;;;18.59;86.92
13312;BME280;34033;48.672;9.376;2023-05-23T04:59:03;98431.31;;;18.58;86.74
13312;BME280;34033;48.672;9.376;2023-05-23T05:01:29;98440.25;;;18.56;86.83
13312;BME280;34033;48.672;9.376;2023-05-23T05:03:55;98430.41;;;18.61;86.75
13312;BME280;34033;48.672;9.376;2023-05-23T05:06:21;98440.06;;;18.63;86.90
13312;BME280;34033;48.672;9.376;2023-05-23T05:08:47;98441.75;;;18.61;87.06
13312;BME280;34033;48.672;9.376;2023-05-23T05:11:12;98441.75;;;18.61;87.20
13312;BME280;34033;48.672;9.376;2023-05-23T05:13:37;98438.81;;;18.64;86.86
13312;BME280;34033;48.672;9.376;2023-05-23T05:16:03;98444.94;;;18.63;87.15
13312;BME280;34033;48.672;9.376;2023-05-23T05:18:29;98446.44;;;18.67;86.77
13312;BME280;34033;48.672;9.376;2023-05-23T05:20:54;98451.19;;;18.70;86.76
13312;BME280;34033;48.672;9.376;2023-05-23T05:23:24;98445.44;;;18.74;86.65
13312;BME280;34033;48.672;9.376;2023-05-23T05:25:49;98452.69;;;18.75;86.61
13312;BME280;34033;48.672;9.376;2023-05-23T05:28:15;98447.22;;;18.68;87.17
13312;BME280;34033;48.672;9.376;2023-05-23T05:30:40;98459.09;;;18.63;87.34
13312;BME280;34033;48.672;9.376;2023-05-23T05:33:06;98450.09;;;18.81;86.12
13312;BME280;34033;48.672;9.376;2023-05-23T05:35:35;98451.09;;;19.03;83.79
13312;BME280;34033;48.672;9.376;2023-05-23T05:38:02;98462.88;;;19.17;83.28
13312;BME280;34033;48.672;9.376;2023-05-23T05:40:31;98458.47;;;19.29;82.65
13312;BME280;34033;48.672;9.376;2023-05-23T05:42:57;98464.91;;;19.30;82.90
13312;BME280;34033;48.672;9.376;2023-05-23T05:45:22;98469.09;;;19.25;82.98
13312;BME280;34033;48.672;9.376;2023-05-23T05:47:47;98461.75;;;19.28;83.39
13312;BME280;34033;48.672;9.376;2023-05-23T05:50:13;98464.16;;;19.29;82.79
13312;BME280;34033;48.672;9.376;2023-05-23T05:52:38;98467.75;;;19.46;81.54
13312;BME280;34033;48.672;9.376;2023-05-23T05:55:04;98460.25;;;19.52;81.13
13312;BME280;34033;48.672;9.376;2023-05-23T05:57:30;98459.16;;;19.33;82.78
13312;BME280;34033;48.672;9.376;2023-05-23T05:59:56;98471.44;;;19.43;81.40
13312;BME280;34033;48.672;9.376;2023-05-23T06:02:21;98460.16;;;19.27;82.74
13312;BME280;34033;48.672;9.376;2023-05-23T06:04:47;98460.66;;;19.38;82.21
13312;BME280;34033;48.672;9.376;2023-05-23T06:07:12;98464.69;;;19.53;80.63
13312;BME280;34033;48.672;9.376;2023-05-23T06:09:37;98466.63;;;19.56;81.12
13312;BME280;34033;48.672;9.376;2023-05-23T06:12:03;98463.72;;;19.72;79.19
13312;BME280;34033;48.672;9.376;2023-05-23T06:14:28;98457.47;;;19.77;80.02
13312;BME280;34033;48.672;9.376;2023-05-23T06:16:53;98460.31;;;19.77;80.00
13312;BME280;34033;48.672;9.376;2023-05-23T06:19:19;98461.69;;;19.73;79.87
13312;BME280;34033;48.672;9.376;2023-05-23T06:21:44;98467.69;;;19.75;79.90
13312;BME280;34033;48.672;9.376;2023-05-23T06:24:09;98467.81;;;19.42;81.17
13312;BME280;34033;48.672;9.376;2023-05-23T06:26:35;98464.16;;;19.42;81.33
13312;BME280;34033;48.672;9.376;2023-05-23T06:29:02;98467.63;;;19.49;80.97
13312;BME280;34033;48.672;9.376;2023-05-23T06:31:27;98475.03;;;19.60;80.30
13312;BME280;34033;48.672;9.376;2023-05-23T06:33:52;98478.66;;;19.60;80.06
13312;BME280;34033;48.672;9.376;2023-05-23T06:36:18;98475.38;;;19.74;79.25
13312;BME280;34033;48.672;9.376;2023-05-23T06:38:43;98474.72;;;19.83;78.19
13312;BME280;34033;48.672;9.376;2023-05-23T06:41:09;98474.16;;;19.88;78.80
13312;BME280;34033;48.672;9.376;2023-05-23T06:43:34;98474.16;;;19.88;79.44
13312;BME280;34033;48.672;9.376;2023-05-23T06:46:00;98481.53;;;19.85;79.49
13312;BME280;34033;48.672;9.376;2023-05-23T06:48:25;98479.13;;;19.71;79.54
13312;BME280;34033;48.672;9.376;2023-05-23T06:50:50;98478.06;;;19.52;80.73
13312;BME280;34033;48.672;9.376;2023-05-23T06:53:16;98481.28;;;19.67;79.52
13312;BME280;34033;48.672;9.376;2023-05-23T06:55:42;98493.28;;;19.58;80.29
13312;BME280;34033;48.672;9.376;2023-05-23T06:58:08;98485.69;;;19.55;80.01
13312;BME280;34033;48.672;9.376;2023-05-23T07:00:33;98492.47;;;19.58;80.54
13312;BME280;34033;48.672;9.376;2023-05-23T07:02:58;98501.16;;;19.67;79.28
13312;BME280;34033;48.672;9.376;2023-05-23T07:05:26;98501.03;;;19.42;81.29
13312;BME280;34033;48.672;9.376;2023-05-23T07:07:52;98508.41;;;19.39;81.51
13312;BME280;34033;48.672;9.376;2023-05-23T07:10:17;98513.25;;;19.10;82.85
13312;BME280;34033;48.672;9.376;2023-05-23T07:12:44;98516.38;;;18.99;83.53
13312;BME280;34033;48.672;9.376;2023-05-23T07:15:10;98510.44;;;18.94;84.09
13312;BME280;34033;48.672;9.376;2023-05-23T07:17:36;98514.63;;;18.89;84.57
13312;BME280;34033;48.672;9.376;2023-05-23T07:20:01;98509.28;;;19.07;83.34
13312;BME280;34033;48.672;9.376;2023-05-23T07:22:28;98514.59;;;19.05;83.26
13312;BME280;34033;48.672;9.376;2023-05-23T07:24:54;98514.75;;;19.14;82.95
13312;BME280;34033;48.672;9.376;2023-05-23T07:27:19;98506.06;;;19.22;82.09
13312;BME280;34033;48.672;9.376;2023-05-23T07:29:45;98515.94;;;19.30;81.69
13312;BME280;34033;48.672;9.376;2023-05-23T07:32:10;98522.50;;;19.27;81.78
13312;BME280;34033;48.672;9.376;2023-05-23T07:34:35;98516.41;;;19.28;81.40
13312;BME280;34033;48.672;9.376;2023-05-23T07:37:01;98522.63;;;19.23;81.73
13312;BME280;34033;48.672;9.376;2023-05-23T07:39:26;98527.88;;;19.08;82.29
13312;BME280;34033;48.672;9.376;2023-05-23T07:41:52;98526.69;;;19.22;81.39
13312;BME280;34033;48.672;9.376;2023-05-23T07:44:18;98530.44;;;19.03;82.18
13312;BME280;34033;48.672;9.376;2023-05-23T07:46:43;98528.34;;;18.74;83.82
13312;BME280;34033;48.672;9.376;2023-05-23T07:49:08;98544.56;;;18.90;82.99
13312;BME280;34033;48.672;9.376;2023-05-23T07:51:34;98529.84;;;18.95;82.35
13312;BME280;34033;48.672;9.376;2023-05-23T07:54:00;98535.06;;;19.13;81.21
13312;BME280;34033;48.672;9.376;2023-05-23T07:56:25;98542.59;;;18.87;82.21
13312;BME280;34033;48.672;9.376;2023-05-23T07:58:51;98546.31;;;18.84;81.85
13312;BME280;34033;48.672;9.376;2023-05-23T08:01:16;98537.56;;;18.62;82.81
13312;BME280;34033;48.672;9.376;2023-05-23T08:03:42;98545.84;;;18.53;82.12
13312;BME280;34033;48.672;9.376;2023-05-23T08:06:08;98539.28;;;18.40;82.82
13312;BME280;34033;48.672;9.376;2023-05-23T08:08:34;98557.78;;;18.45;82.10
13312;BME280;34033;48.672;9.376;2023-05-23T08:11:00;98551.59;;;18.50;79.97
13312;BME280;34033;48.672;9.376;2023-05-23T08:13:25;98551.38;;;18.24;80.99
13312;BME280;34033;48.672;9.376;2023-05-23T08:15:51;98550.00;;;18.49;79.82
13312;BME280;34033;48.672;9.376;2023-05-23T08:18:16;98548.63;;;18.73;77.83
13312;BME280;34033;48.672;9.376;2023-05-23T08:20:42;98549.50;;;18.86;77.83
13312;BME280;34033;48.672;9.376;2023-05-23T08:23:07;98550.28;;;18.87;76.52
13312;BME280;34033;48.672;9.376;2023-05-23T08:25:33;98557.47;;;19.07;76.10
13312;BME280;34033;48.672;9.376;2023-05-23T08:27:59;98559.56;;;19.03;75.82
13312;BME280;34033;48.672;9.376;2023-05-23T08:30:25;98566.69;;;18.95;76.22
13312;BME280;34033;48.672;9.376;2023-05-23T08:32:51;98562.94;;;18.82;76.69
13312;BME280;34033;48.672;9.376;2023-05-23T08:35:17;98576.03;;;18.92;77.57
13312;BME280;34033;48.672;9.376;2023-05-23T08:37:42;98565.16;;;18.74;77.85
13312;BME280;34033;48.672;9.376;2023-05-23T08:40:13;98583.13;;;19.00;76.34
13312;BME280;34033;48.672;9.376;2023-05-23T08:42:42;98568.63;;;18.66;77.20
13312;BME280;34033;48.672;9.376;2023-05-23T08:45:08;98585.56;;;18.50;78.69
13312;BME280;34033;48.672;9.376;2023-05-23T08:47:35;98578.59;;;18.70;76.82
13312;BME280;34033;48.672;9.376;2023-05-23T08:50:05;98588.75;;;18.52;76.46
13312;BME280;34033;48.672;9.376;2023-05-23T08:52:32;98583.84;;;18.72;75.34
13312;BME280;34033;48.672;9.376;2023-05-23T08:54:59;98600.09;;;18.52;74.19
13312;BME280;34033;48.672;9.376;2023-05-23T08:57:25;98593.16;;;18.53;74.66
13312;BME280;34033;48.672;9.376;2023-05-23T08:59:51;98602.06;;;18.55;74.05
13312;BME280;34033;48.672;9.376;2023-05-23T09:02:17;98593.25;;;18.49;73.80
13312;BME280;34033;48.672;9.376;2023-05-23T09:04:42;98600.38;;;18.57;73.05
13312;BME280;34033;48.672;9.376;2023-05-23T09:07:08;98601.00;;;18.65;73.52
13312;BME280;34033;48.672;9.376;2023-05-23T09:09:35;98609.50;;;18.65;73.47
13312;BME280;34033;48.672;9.376;2023-05-23T09:12:01;98613.97;;;18.46;74.14
13312;BME280;34033;48.672;9.376;2023-05-23T09:14:27;98617.41;;;18.54;74.37
13312;BME280;34033;48.672;9.376;2023-05-23T09:17:00;98611.03;;;18.50;73.39
13312;BME280;34033;48.672;9.376;2023-05-23T09:19:27;98619.97;;;18.48;73.09
13312;BME280;34033;48.672;9.376;2023-05-23T09:21:53;98610.28;;;18.65;72.11
13312;BME280;34033;48.672;9.376;2023-05-23T09:24:19;98607.28;;;18.72;70.84
13312;BME280;34033;48.672;9.376;2023-05-23T09:26:48;98620.56;;;18.75;71.88
13312;BME280;34033;48.672;9.376;2023-05-23T09:29:13;98617.56;;;18.99;72.02
13312;BME280;34033;48.672;9.376;2023-05-23T09:31:38;98612.31;;;18.65;70.81
13312;BME280;34033;48.672;9.376;2023-05-23T09:34:04;98614.28;;;18.84;71.57
13312;BME280;34033;48.672;9.376;2023-05-23T09:36:32;98617.66;;;19.11;71.07
13312;BME280;34033;48.672;9.376;2023-05-23T09:39:03;98617.56;;;18.99;69.89
13312;BME280;34033;48.672;9.376;2023-05-23T09:41:33;98627.22;;;18.85;70.11
13312;BME280;34033;48.672;9.376;2023-05-23T09:44:04;98625.38;;;19.11;68.56
13312;BME280;34033;48.672;9.376;2023-05-23T09:46:30;98619.06;;;19.20;68.36
13312;BME280;34033;48.672;9.376;2023-05-23T09:48:55;98632.50;;;19.32;67.83
13312;BME280;34033;48.672;9.376;2023-05-23T09:51:22;98627.34;;;19.43;67.92
13312;BME280;34033;48.672;9.376;2023-05-23T09:53:49;98621.31;;;19.41;67.34
13312;BME280;34033;48.672;9.376;2023-05-23T09:56:18;98622.94;;;19.26;67.94
13312;BME280;34033;48.672;9.376;2023-05-23T09:58:46;98620.81;;;19.30;67.29
13312;BME280;34033;48.672;9.376;2023-05-23T10:01:12;98629.69;;;19.15;67.20
13312;BME280;34033;48.672;9.376;2023-05-23T10:08:45;98628.50;;;18.64;69.18
13312;BME280;34033;48.672;9.376;2023-05-23T10:13:43;98628.38;;;19.04;67.96
13312;BME280;34033;48.672;9.376;2023-05-23T10:18:59;98620.56;;;19.24;66.86
13312;BME280;34033;48.672;9.376;2023-05-23T10:21:34;98630.03;;;19.50;66.98
13312;BME280;34033;48.672;9.376;2023-05-23T10:24:02;98628.06;;;19.63;64.81
13312;BME280;34033;48.672;9.376;2023-05-23T10:26:28;98625.03;;;19.70;64.85
13312;BME280;34033;48.672;9.376;2023-05-23T10:28:54;98626.81;;;19.64;65.15
13312;BME280;34033;48.672;9.376;2023-05-23T10:31:20;98632.41;;;19.68;64.74
13312;BME280;34033;48.672;9.376;2023-05-23T10:33:55;98637.09;;;19.58;64.13
13312;BME280;34033;48.672;9.376;2023-05-23T10:36:43;98623.44;;;19.69;64.44
13312;BME280;34033;48.672;9.376;2023-05-23T10:39:32;98624.81;;;19.48;64.71
13312;BME280;34033;48.672;9.376;2023-05-23T10:45:22;98630.00;;;19.66;64.60
13312;BME280;34033;48.672;9.376;2023-05-23T10:47:50;98625.81;;;19.99;64.41
13312;BME280;34033;48.672;9.376;2023-05-23T10:50:33;98626.50;;;20.58;62.87
13312;BME280;34033;48.672;9.376;2023-05-23T10:53:00;98623.47;;;20.77;61.04
13312;BME280;34033;48.672;9.376;2023-05-23T10:55:30;98623.91;;;20.63;60.23
13312;BME280;34033;48.672;9.376;2023-05-23T10:58:10;98626.88;;;20.72;61.74
13312;BME280;34033;48.672;9.376;2023-05-23T11:00:36;98624.44;;;20.46;60.97
13312;BME280;34033;48.672;9.376;2023-05-23T11:03:04;98634.94;;;20.61;60.78
13312;BME280;34033;48.672;9.376;2023-05-23T11:05:33;98632.78;;;20.65;60.67
13312;BME280;34033;48.672;9.376;2023-05-23T11:10:54;98623.47;;;20.77;59.14
13312;BME280;34033;48.672;9.376;2023-05-23T11:13:20;98622.41;;;20.97;60.42
13312;BME280;34033;48.672;9.376;2023-05-23T11:15:46;98619.81;;;21.15;58.08
13312;BME280;34033;48.672;9.376;2023-05-23T11:18:22;98613.66;;;21.04;57.41
13312;BME280;34033;48.672;9.376;2023-05-23T11:20:50;98621.41;;;20.91;59.14
13312;BME280;34033;48.672;9.376;2023-05-23T11:23:16;98616.75;;;20.84;58.11
13312;BME280;34033;48.672;9.376;2023-05-23T11:28:10;98619.34;;;20.53;59.30
13312;BME280;34033;48.672;9.376;2023-05-23T11:30:36;98615.28;;;20.54;59.22
13312;BME280;34033;48.672;9.376;2023-05-23T11:33:12;98613.03;;;20.62;58.74
13312;BME280;34033;48.672;9.376;2023-05-23T11:35:47;98610.59;;;21.11;58.23
13312;BME280;34033;48.672;9.376;2023-05-23T11:38:14;98621.63;;;21.09;57.05
13312;BME280;34033;48.672;9.376;2023-05-23T11:40:42;98620.59;;;21.03;56.32
13312;BME280;34033;48.672;9.376;2023-05-23T11:43:13;98625.94;;;21.13;56.48
13312;BME280;34033;48.672;9.376;2023-05-23T11:45:40;98620.50;;;21.19;57.31
13312;BME280;34033;48.672;9.376;2023-05-23T11:48:10;98625.59;;;21.11;56.06
13312;BME280;34033;48.672;9.376;2023-05-23T11:50:50;98627.34;;;20.84;56.19
13312;BME280;34033;48.672;9.376;2023-05-23T11:53:18;98622.41;;;21.09;55.96
13312;BME280;34033;48.672;9.376;2023-05-23T11:58:15;98626.19;;;20.94;55.46
13312;BME280;34033;48.672;9.376;2023-05-23T12:00:44;98615.94;;;21.21;55.68
13312;BME280;34033;48.672;9.376;2023-05-23T12:03:09;98615.69;;;21.29;54.62
13312;BME280;34033;48.672;9.376;2023-05-23T12:05:36;98625.38;;;21.06;54.49
13312;BME280;34033;48.672;9.376;2023-05-23T12:08:01;98620.50;;;21.19;54.37
13312;BME280;34033;48.672;9.376;2023-05-23T12:10:27;98611.84;;;21.23;53.55
13312;BME280;34033;48.672;9.376;2023-05-23T12:12:53;98610.91;;;21.13;54.15
13312;BME280;34033;48.672;9.376;2023-05-23T12:15:24;98613.84;;;21.35;52.22
13312;BME280;34033;48.672;9.376;2023-05-23T12:17:52;98609.34;;;21.59;53.04
13312;BME280;34033;48.672;9.376;2023-05-23T12:20:18;98612.47;;;21.39;51.10
13312;BME280;34033;48.672;9.376;2023-05-23T12:22:44;98607.56;;;21.40;50.84
13312;BME280;34033;48.672;9.376;2023-05-23T12:25:10;98609.59;;;21.52;51.43
13312;BME280;34033;48.672;9.376;2023-05-23T12:27:36;98603.53;;;21.62;52.84
13312;BME280;34033;48.672;9.376;2023-05-23T12:30:27;98602.63;;;21.66;54.13
13312;BME280;34033;48.672;9.376;2023-05-23T12:32:53;98593.88;;;21.60;53.32
13312;BME280;34033;48.672;9.376;2023-05-23T12:35:18;98604.78;;;21.27;53.26
13312;BME280;34033;48.672;9.376;2023-05-23T12:37:44;98592.72;;;21.23;53.49
13312;BME280;34033;48.672;9.376;2023-05-23T12:40:14;98604.94;;;21.45;54.20
13312;BME280;34033;48.672;9.376;2023-05-23T12:42:50;98597.69;;;21.44;53.25
13312;BME280;34033;48.672;9.376;2023-05-23T12:45:33;98601.19;;;21.48;53.14
13312;BME280;34033;48.672;9.376;2023-05-23T12:48:06;98602.16;;;21.33;52.57
13312;BME280;34033;48.672;9.376;2023-05-23T12:50:32;98590.00;;;21.32;53.01
13312;BME280;34033;48.672;9.376;2023-05-23T12:52:58;98596.03;;;21.56;52.38
13312;BME280;34033;48.672;9.376;2023-05-23T12:55:24;98591.47;;;21.58;53.02
13312;BME280;34033;48.672;9.376;2023-05-23T12:57:49;98598.19;;;21.64;51.47
13312;BME280;34033;48.672;9.376;2023-05-23T13:00:15;98593.88;;;21.60;50.00
13312;BME280;34033;48.672;9.376;2023-05-23T13:02:40;98588.00;;;21.42;50.86
13312;BME280;34033;48.672;9.376;2023-05-23T13:05:06;98573.22;;;21.90;51.68
13312;BME280;34033;48.672;9.376;2023-05-23T13:07:32;98581.22;;;22.48;50.22
13312;BME280;34033;48.672;9.376;2023-05-23T13:09:57;98571.97;;;22.35;48.67
13312;BME280;34033;48.672;9.376;2023-05-23T13:12:23;98577.72;;;22.84;48.47
13312;BME280;34033;48.672;9.376;2023-05-23T13:14:48;98573.06;;;23.17;46.83
13312;BME280;34033;48.672;9.376;2023-05-23T13:17:14;98574.66;;;23.18;46.56
13312;BME280;34033;48.672;9.376;2023-05-23T13:19:39;98585.19;;;22.81;46.60
13312;BME280;34033;48.672;9.376;2023-05-23T13:22:05;98582.06;;;22.67;47.02
13312;BME280;34033;48.672;9.376;2023-05-23T13:24:34;98582.78;;;22.80;48.53
13312;BME280;34033;48.672;9.376;2023-05-23T13:27:00;98582.50;;;22.56;47.78